JST837 YBPN-YBBN
Flight info
| Callsign | JST837 |
|---|---|
| Flight time | 1h 15m |
| Altitude | 37000 |
| Route | PN Y495 COCKA Y177 BN |
| Aircraft | A320/M-SDE3FGHIRWY/LB1 |
Departure
| Time | 2026-04-30 13:13 |
|---|---|
| Airport | Proserpine Whitsunday Coast Airport (YBPN) |
Arrival
| Time | 2026-04-30 14:28 |
|---|---|
| Airport | Brisbane International Airport (YBBN) |
| Time | Latitude | Longitude | Altitude | Speed | Heading |
|---|---|---|---|---|---|
| 2026-04-30 12:54 | -20.48995 | 148.55174 | 61 ft | 0 kts | 73° |
| 2026-04-30 13:09 | -20.48997 | 148.55185 | 51 ft | 2 kts | 110° |
| 2026-04-30 13:09 | -20.49019 | 148.55194 | 60 ft | 5 kts | 176° |
| 2026-04-30 13:10 | -20.49058 | 148.55179 | 60 ft | 7 kts | 204° |
| 2026-04-30 13:10 | -20.49113 | 148.55152 | 56 ft | 10 kts | 204° |
| 2026-04-30 13:10 | -20.49184 | 148.55118 | 54 ft | 12 kts | 205° |
| 2026-04-30 13:10 | -20.49266 | 148.55078 | 60 ft | 13 kts | 204° |
| 2026-04-30 13:11 | -20.49287 | 148.55000 | 64 ft | 14 kts | 296° |
| 2026-04-30 13:11 | -20.49242 | 148.54901 | 60 ft | 16 kts | 295° |
| 2026-04-30 13:11 | -20.49194 | 148.54788 | 62 ft | 17 kts | 294° |
| 2026-04-30 13:11 | -20.49144 | 148.54666 | 60 ft | 19 kts | 293° |
| 2026-04-30 13:12 | -20.49089 | 148.54534 | 61 ft | 15 kts | 289° |
| 2026-04-30 13:12 | -20.49072 | 148.54459 | 63 ft | 5 kts | 323° |
| 2026-04-30 13:12 | -20.49060 | 148.54478 | 60 ft | 5 kts | 107° |
| 2026-04-30 13:13 | -20.49275 | 148.54960 | 60 ft | 100 kts | 114° |
| 2026-04-30 13:13 | -20.49643 | 148.55830 | 262 ft | 143 kts | 116° |
| 2026-04-30 13:13 | -20.50813 | 148.57500 | 1841 ft | 148 kts | 153° |
| 2026-04-30 13:14 | -20.51786 | 148.57811 | 2659 ft | 142 kts | 157° |
| 2026-04-30 13:14 | -20.52732 | 148.58149 | 3034 ft | 154 kts | 152° |
| 2026-04-30 13:14 | -20.55021 | 148.59141 | 3579 ft | 197 kts | 153° |
| 2026-04-30 13:15 | -20.56363 | 148.59712 | 3916 ft | 219 kts | 154° |
| 2026-04-30 13:15 | -20.59458 | 148.60999 | 5131 ft | 251 kts | 155° |
| 2026-04-30 13:15 | -20.61117 | 148.61676 | 5854 ft | 260 kts | 155° |
| 2026-04-30 13:16 | -20.62823 | 148.62367 | 6157 ft | 263 kts | 156° |
| 2026-04-30 13:16 | -20.64528 | 148.63056 | 6606 ft | 267 kts | 156° |
| 2026-04-30 13:16 | -20.66277 | 148.63764 | 7442 ft | 271 kts | 156° |
| 2026-04-30 13:17 | -20.69850 | 148.65213 | 9058 ft | 279 kts | 157° |
| 2026-04-30 13:17 | -20.71680 | 148.65958 | 9832 ft | 284 kts | 158° |
| 2026-04-30 13:17 | -20.75545 | 148.67530 | 10666 ft | 318 kts | 159° |
| 2026-04-30 13:18 | -20.77686 | 148.68398 | 10865 ft | 339 kts | 159° |
| 2026-04-30 13:18 | -20.82208 | 148.70240 | 12002 ft | 353 kts | 160° |
| 2026-04-30 13:18 | -20.84526 | 148.71183 | 12643 ft | 358 kts | 160° |
| 2026-04-30 13:19 | -20.86847 | 148.72126 | 13268 ft | 363 kts | 161° |
| 2026-04-30 13:19 | -20.89228 | 148.73097 | 13900 ft | 368 kts | 161° |
| 2026-04-30 13:19 | -20.91631 | 148.74082 | 14457 ft | 372 kts | 161° |
| 2026-04-30 13:19 | -20.94057 | 148.75073 | 15015 ft | 375 kts | 161° |
| 2026-04-30 13:20 | -20.96513 | 148.76073 | 15536 ft | 379 kts | 161° |
| 2026-04-30 13:20 | -20.98993 | 148.77083 | 16060 ft | 383 kts | 161° |
| 2026-04-30 13:20 | -21.01470 | 148.78093 | 16577 ft | 387 kts | 161° |
| 2026-04-30 13:20 | -21.03999 | 148.79128 | 17094 ft | 390 kts | 161° |
| 2026-04-30 13:21 | -21.06550 | 148.80172 | 17606 ft | 394 kts | 161° |
| 2026-04-30 13:21 | -21.09124 | 148.81223 | 18139 ft | 398 kts | 162° |
| 2026-04-30 13:21 | -21.11725 | 148.82284 | 18636 ft | 401 kts | 162° |
| 2026-04-30 13:22 | -21.16978 | 148.84435 | 19575 ft | 407 kts | 162° |
| 2026-04-30 13:22 | -21.19640 | 148.85525 | 20062 ft | 410 kts | 162° |
| 2026-04-30 13:22 | -21.25011 | 148.87727 | 21058 ft | 416 kts | 162° |
| 2026-04-30 13:23 | -21.27693 | 148.88826 | 21544 ft | 419 kts | 162° |
| 2026-04-30 13:23 | -21.33179 | 148.91076 | 22473 ft | 425 kts | 162° |
| 2026-04-30 13:24 | -21.38747 | 148.93365 | 23376 ft | 431 kts | 162° |
| 2026-04-30 13:24 | -21.44382 | 148.95682 | 24162 ft | 436 kts | 162° |
| 2026-04-30 13:25 | -21.50046 | 148.98012 | 24886 ft | 440 kts | 163° |
| 2026-04-30 13:25 | -21.55802 | 149.00383 | 25587 ft | 445 kts | 163° |
| 2026-04-30 13:26 | -21.64547 | 149.03993 | 26647 ft | 452 kts | 163° |
| 2026-04-30 13:26 | -21.70465 | 149.06435 | 27355 ft | 457 kts | 163° |
| 2026-04-30 13:27 | -21.76424 | 149.08930 | 28058 ft | 462 kts | 163° |
| 2026-04-30 13:28 | -21.85416 | 149.12807 | 29089 ft | 469 kts | 162° |
| 2026-04-30 13:28 | -21.91506 | 149.15436 | 29751 ft | 473 kts | 163° |
| 2026-04-30 13:28 | -21.94569 | 149.16754 | 30223 ft | 472 kts | 163° |
| 2026-04-30 13:29 | -22.00666 | 149.19365 | 31013 ft | 471 kts | 163° |
| 2026-04-30 13:29 | -22.06751 | 149.21974 | 31780 ft | 470 kts | 164° |
| 2026-04-30 13:30 | -22.15828 | 149.25869 | 32970 ft | 469 kts | 165° |
| 2026-04-30 13:31 | -22.21885 | 149.28471 | 33787 ft | 468 kts | 165° |
| 2026-04-30 13:31 | -22.30957 | 149.32387 | 34867 ft | 467 kts | 165° |
| 2026-04-30 13:32 | -22.36951 | 149.34977 | 35461 ft | 465 kts | 165° |
| 2026-04-30 13:32 | -22.42968 | 149.37572 | 35999 ft | 464 kts | 166° |
| 2026-04-30 13:33 | -22.48961 | 149.40166 | 36604 ft | 463 kts | 166° |
| 2026-04-30 13:33 | -22.54942 | 149.42758 | 37128 ft | 463 kts | 166° |
| 2026-04-30 13:34 | -22.57950 | 149.44056 | 37205 ft | 466 kts | 166° |
| 2026-04-30 13:35 | -22.70050 | 149.49293 | 37211 ft | 470 kts | 166° |
| 2026-04-30 13:36 | -22.82196 | 149.54577 | 37208 ft | 469 kts | 166° |
| 2026-04-30 13:36 | -22.91289 | 149.58533 | 37218 ft | 469 kts | 166° |
| 2026-04-30 13:37 | -23.00352 | 149.62478 | 37231 ft | 470 kts | 165° |
| 2026-04-30 13:38 | -23.09188 | 149.67297 | 37237 ft | 478 kts | 156° |
| 2026-04-30 13:39 | -23.20645 | 149.74551 | 37243 ft | 478 kts | 156° |
| 2026-04-30 13:40 | -23.29273 | 149.80009 | 37246 ft | 477 kts | 156° |
| 2026-04-30 13:40 | -23.35024 | 149.83648 | 37247 ft | 477 kts | 156° |
| 2026-04-30 13:41 | -23.40724 | 149.87270 | 37249 ft | 477 kts | 156° |
| 2026-04-30 13:41 | -23.46461 | 149.90918 | 37248 ft | 477 kts | 156° |
| 2026-04-30 13:42 | -23.52187 | 149.94567 | 37249 ft | 477 kts | 156° |
| 2026-04-30 13:42 | -23.60774 | 150.00036 | 37252 ft | 476 kts | 156° |
| 2026-04-30 13:43 | -23.66493 | 150.03679 | 37250 ft | 476 kts | 156° |
| 2026-04-30 13:43 | -23.71253 | 150.06717 | 37250 ft | 476 kts | 156° |
| 2026-04-30 13:44 | -23.76963 | 150.10372 | 37251 ft | 476 kts | 155° |
| 2026-04-30 13:44 | -23.83601 | 150.14623 | 37255 ft | 476 kts | 155° |
| 2026-04-30 13:45 | -23.91204 | 150.19485 | 37260 ft | 475 kts | 155° |
| 2026-04-30 13:46 | -23.96911 | 150.23139 | 37258 ft | 475 kts | 155° |
| 2026-04-30 13:46 | -24.02622 | 150.26794 | 37260 ft | 475 kts | 155° |
| 2026-04-30 13:47 | -24.08321 | 150.30460 | 37259 ft | 475 kts | 155° |
| 2026-04-30 13:47 | -24.13980 | 150.34105 | 37259 ft | 475 kts | 155° |
| 2026-04-30 13:48 | -24.19686 | 150.37780 | 37263 ft | 475 kts | 155° |
| 2026-04-30 13:48 | -24.25391 | 150.41454 | 37261 ft | 475 kts | 155° |
| 2026-04-30 13:49 | -24.31086 | 150.45131 | 37265 ft | 475 kts | 155° |
| 2026-04-30 13:49 | -24.36748 | 150.48790 | 37273 ft | 475 kts | 154° |
| 2026-04-30 13:50 | -24.42443 | 150.52467 | 37272 ft | 475 kts | 154° |
| 2026-04-30 13:50 | -24.50968 | 150.58027 | 37275 ft | 476 kts | 153° |
| 2026-04-30 13:51 | -24.56524 | 150.61999 | 37287 ft | 477 kts | 150° |
| 2026-04-30 13:51 | -24.62010 | 150.66129 | 37280 ft | 477 kts | 150° |
| 2026-04-30 13:52 | -24.67477 | 150.70196 | 37285 ft | 477 kts | 151° |
| 2026-04-30 13:52 | -24.73006 | 150.74233 | 37298 ft | 477 kts | 151° |
| 2026-04-30 13:53 | -24.78541 | 150.78256 | 37296 ft | 476 kts | 151° |
| 2026-04-30 13:53 | -24.84068 | 150.82293 | 37293 ft | 476 kts | 151° |
| 2026-04-30 13:54 | -24.89587 | 150.86338 | 37296 ft | 476 kts | 150° |
| 2026-04-30 13:54 | -24.95094 | 150.90390 | 37292 ft | 476 kts | 150° |
| 2026-04-30 13:55 | -25.00569 | 150.94422 | 37291 ft | 476 kts | 150° |
| 2026-04-30 13:55 | -25.06081 | 150.98478 | 37300 ft | 476 kts | 150° |
| 2026-04-30 13:56 | -25.11594 | 151.02534 | 37303 ft | 476 kts | 150° |
| 2026-04-30 13:56 | -25.17106 | 151.06597 | 37300 ft | 476 kts | 150° |
| 2026-04-30 13:57 | -25.22613 | 151.10671 | 37300 ft | 476 kts | 150° |
| 2026-04-30 13:57 | -25.28119 | 151.14740 | 37303 ft | 476 kts | 150° |
| 2026-04-30 13:58 | -25.36386 | 151.20847 | 37305 ft | 476 kts | 150° |
| 2026-04-30 13:59 | -25.41889 | 151.24918 | 37301 ft | 476 kts | 150° |
| 2026-04-30 13:59 | -25.47363 | 151.28979 | 37306 ft | 476 kts | 150° |
| 2026-04-30 14:00 | -25.52873 | 151.33068 | 37306 ft | 476 kts | 150° |
| 2026-04-30 14:00 | -25.61126 | 151.39212 | 37307 ft | 476 kts | 150° |
| 2026-04-30 14:01 | -25.66592 | 151.43283 | 37306 ft | 476 kts | 150° |
| 2026-04-30 14:01 | -25.72091 | 151.47386 | 37308 ft | 476 kts | 150° |
| 2026-04-30 14:02 | -25.77302 | 151.51980 | 37313 ft | 480 kts | 141° |
| 2026-04-30 14:02 | -25.82278 | 151.56928 | 37304 ft | 480 kts | 141° |
| 2026-04-30 14:03 | -25.87267 | 151.61865 | 37312 ft | 480 kts | 141° |
| 2026-04-30 14:03 | -25.92251 | 151.66812 | 37309 ft | 480 kts | 141° |
| 2026-04-30 14:04 | -25.97218 | 151.71777 | 37313 ft | 480 kts | 141° |
| 2026-04-30 14:04 | -26.02161 | 151.76706 | 37239 ft | 480 kts | 141° |
| 2026-04-30 14:05 | -26.04650 | 151.79184 | 36600 ft | 482 kts | 141° |
| 2026-04-30 14:05 | -26.07162 | 151.81685 | 35829 ft | 485 kts | 141° |
| 2026-04-30 14:05 | -26.09679 | 151.84196 | 34963 ft | 489 kts | 141° |
| 2026-04-30 14:05 | -26.12212 | 151.86726 | 33977 ft | 489 kts | 141° |
| 2026-04-30 14:06 | -26.14722 | 151.89239 | 33001 ft | 481 kts | 140° |
| 2026-04-30 14:06 | -26.19660 | 151.94189 | 31054 ft | 475 kts | 140° |
| 2026-04-30 14:07 | -26.24488 | 151.99029 | 29712 ft | 464 kts | 140° |
| 2026-04-30 14:07 | -26.26882 | 152.01427 | 29081 ft | 460 kts | 140° |
| 2026-04-30 14:07 | -26.29252 | 152.03805 | 28480 ft | 456 kts | 140° |
| 2026-04-30 14:08 | -26.33928 | 152.08504 | 27235 ft | 449 kts | 140° |
| 2026-04-30 14:08 | -26.36238 | 152.10828 | 26619 ft | 446 kts | 140° |
| 2026-04-30 14:08 | -26.40812 | 152.15435 | 25415 ft | 440 kts | 140° |
| 2026-04-30 14:09 | -26.43080 | 152.17715 | 24814 ft | 438 kts | 140° |
| 2026-04-30 14:09 | -26.45305 | 152.19950 | 24240 ft | 435 kts | 140° |
| 2026-04-30 14:09 | -26.49778 | 152.24451 | 23071 ft | 428 kts | 140° |
| 2026-04-30 14:10 | -26.51973 | 152.26670 | 22544 ft | 423 kts | 139° |
| 2026-04-30 14:10 | -26.54141 | 152.28868 | 22031 ft | 418 kts | 139° |
| 2026-04-30 14:10 | -26.56285 | 152.31043 | 21518 ft | 415 kts | 139° |
| 2026-04-30 14:10 | -26.58418 | 152.33204 | 21030 ft | 411 kts | 139° |
| 2026-04-30 14:11 | -26.60534 | 152.35343 | 20513 ft | 409 kts | 139° |
| 2026-04-30 14:11 | -26.62621 | 152.37454 | 20004 ft | 407 kts | 139° |
| 2026-04-30 14:11 | -26.64714 | 152.39576 | 19474 ft | 406 kts | 139° |
| 2026-04-30 14:11 | -26.66792 | 152.41702 | 18950 ft | 404 kts | 138° |
| 2026-04-30 14:12 | -26.68857 | 152.43829 | 18405 ft | 402 kts | 138° |
| 2026-04-30 14:12 | -26.70899 | 152.45941 | 17857 ft | 399 kts | 137° |
| 2026-04-30 14:12 | -26.72924 | 152.48039 | 17283 ft | 396 kts | 137° |
| 2026-04-30 14:12 | -26.74250 | 152.49415 | 16957 ft | 392 kts | 137° |
| 2026-04-30 14:13 | -26.76912 | 152.52174 | 16212 ft | 387 kts | 137° |
| 2026-04-30 14:13 | -26.78882 | 152.54210 | 15687 ft | 383 kts | 137° |
| 2026-04-30 14:13 | -26.80844 | 152.56235 | 15129 ft | 380 kts | 137° |
| 2026-04-30 14:13 | -26.82758 | 152.58212 | 14546 ft | 377 kts | 136° |
| 2026-04-30 14:14 | -26.84677 | 152.60200 | 13957 ft | 374 kts | 136° |
| 2026-04-30 14:14 | -26.86573 | 152.62167 | 13326 ft | 371 kts | 136° |
| 2026-04-30 14:14 | -26.88423 | 152.64087 | 12790 ft | 366 kts | 136° |
| 2026-04-30 14:14 | -26.89656 | 152.65362 | 12428 ft | 363 kts | 136° |
| 2026-04-30 14:15 | -26.92124 | 152.67911 | 11706 ft | 358 kts | 136° |
| 2026-04-30 14:15 | -26.93946 | 152.69792 | 11177 ft | 355 kts | 136° |
| 2026-04-30 14:15 | -26.95748 | 152.71651 | 10797 ft | 347 kts | 136° |
| 2026-04-30 14:15 | -26.97488 | 152.73448 | 10675 ft | 332 kts | 136° |
| 2026-04-30 14:16 | -26.99113 | 152.75215 | 10557 ft | 319 kts | 129° |
| 2026-04-30 14:16 | -27.00325 | 152.77233 | 10437 ft | 306 kts | 116° |
| 2026-04-30 14:16 | -27.01158 | 152.79368 | 10077 ft | 294 kts | 112° |
| 2026-04-30 14:16 | -27.01934 | 152.81454 | 9563 ft | 285 kts | 112° |
| 2026-04-30 14:17 | -27.02689 | 152.83492 | 9102 ft | 281 kts | 112° |
| 2026-04-30 14:17 | -27.03426 | 152.85475 | 8907 ft | 278 kts | 112° |
| 2026-04-30 14:17 | -27.04169 | 152.87471 | 8567 ft | 277 kts | 112° |
| 2026-04-30 14:17 | -27.04908 | 152.89458 | 8257 ft | 274 kts | 112° |
| 2026-04-30 14:18 | -27.05639 | 152.91418 | 7927 ft | 272 kts | 112° |
| 2026-04-30 14:18 | -27.06364 | 152.93365 | 7666 ft | 268 kts | 112° |
| 2026-04-30 14:18 | -27.07596 | 152.97264 | 7041 ft | 261 kts | 104° |
| 2026-04-30 14:19 | -27.08399 | 153.01168 | 6000 ft | 251 kts | 104° |
| 2026-04-30 14:19 | -27.08791 | 153.03071 | 5641 ft | 250 kts | 104° |
| 2026-04-30 14:19 | -27.09183 | 153.04968 | 5291 ft | 249 kts | 104° |
| 2026-04-30 14:20 | -27.09568 | 153.06835 | 4940 ft | 248 kts | 104° |
| 2026-04-30 14:20 | -27.09957 | 153.08725 | 4579 ft | 249 kts | 104° |
| 2026-04-30 14:20 | -27.10512 | 153.12565 | 3880 ft | 252 kts | 89° |
| 2026-04-30 14:21 | -27.10291 | 153.14493 | 3724 ft | 245 kts | 85° |
| 2026-04-30 14:21 | -27.10058 | 153.16349 | 3596 ft | 235 kts | 85° |
| 2026-04-30 14:21 | -27.09902 | 153.19890 | 3317 ft | 225 kts | 98° |
| 2026-04-30 14:22 | -27.10211 | 153.21589 | 3078 ft | 219 kts | 114° |
| 2026-04-30 14:22 | -27.12180 | 153.24059 | 2977 ft | 221 kts | 158° |
| 2026-04-30 14:22 | -27.13776 | 153.24305 | 2975 ft | 238 kts | 181° |
| 2026-04-30 14:23 | -27.16705 | 153.23005 | 2979 ft | 215 kts | 201° |
| 2026-04-30 14:23 | -27.19319 | 153.21515 | 2991 ft | 202 kts | 201° |
| 2026-04-30 14:24 | -27.21636 | 153.20192 | 2982 ft | 171 kts | 200° |
| 2026-04-30 14:24 | -27.22673 | 153.19602 | 2833 ft | 164 kts | 199° |
| 2026-04-30 14:25 | -27.24645 | 153.18479 | 2453 ft | 151 kts | 199° |
| 2026-04-30 14:25 | -27.26432 | 153.17461 | 2088 ft | 142 kts | 198° |
| 2026-04-30 14:26 | -27.28138 | 153.16488 | 1733 ft | 133 kts | 200° |
| 2026-04-30 14:26 | -27.28963 | 153.16018 | 1546 ft | 132 kts | 199° |
| 2026-04-30 14:26 | -27.30606 | 153.15081 | 1199 ft | 131 kts | 199° |
| 2026-04-30 14:27 | -27.31426 | 153.14613 | 1013 ft | 133 kts | 201° |
| 2026-04-30 14:27 | -27.32250 | 153.14143 | 830 ft | 132 kts | 202° |
| 2026-04-30 14:27 | -27.33070 | 153.13673 | 660 ft | 133 kts | 204° |
| 2026-04-30 14:28 | -27.34732 | 153.12726 | 284 ft | 135 kts | 204° |
| 2026-04-30 14:28 | -27.35572 | 153.12243 | 108 ft | 135 kts | 203° |
| 2026-04-30 14:28 | -27.36390 | 153.11774 | 21 ft | 121 kts | 205° |
| 2026-04-30 14:28 | -27.36896 | 153.11499 | 19 ft | 45 kts | 206° |
| 2026-04-30 14:29 | -27.37311 | 153.11326 | 19 ft | 25 kts | 179° |
| 2026-04-30 14:29 | -27.37454 | 153.11338 | 18 ft | 7 kts | 175° |
| 2026-04-30 14:30 | -27.37394 | 153.11531 | 20 ft | 16 kts | 27° |
| 2026-04-30 14:31 | -27.37347 | 153.11662 | 18 ft | 12 kts | 117° |
| 2026-04-30 14:31 | -27.37444 | 153.11874 | 18 ft | 18 kts | 117° |
| 2026-04-30 14:31 | -27.37506 | 153.12010 | 18 ft | 21 kts | 117° |
| 2026-04-30 14:32 | -27.37641 | 153.12311 | 18 ft | 22 kts | 117° |
| 2026-04-30 14:32 | -27.37707 | 153.12452 | 18 ft | 20 kts | 116° |
| 2026-04-30 14:32 | -27.37766 | 153.12583 | 18 ft | 20 kts | 115° |
| 2026-04-30 14:33 | -27.37815 | 153.12693 | 18 ft | 12 kts | 117° |
| 2026-04-30 14:33 | -27.37935 | 153.12800 | 18 ft | 16 kts | 207° |
| 2026-04-30 14:33 | -27.38040 | 153.12738 | 19 ft | 19 kts | 207° |
| 2026-04-30 14:34 | -27.38164 | 153.12669 | 18 ft | 21 kts | 206° |
| 2026-04-30 14:34 | -27.38298 | 153.12593 | 18 ft | 22 kts | 206° |
| 2026-04-30 14:34 | -27.38420 | 153.12521 | 18 ft | 18 kts | 207° |
| 2026-04-30 14:34 | -27.38525 | 153.12462 | 18 ft | 16 kts | 207° |
| 2026-04-30 14:35 | -27.38678 | 153.12370 | 19 ft | 9 kts | 227° |
| 2026-04-30 14:35 | -27.38670 | 153.12283 | 18 ft | 7 kts | 275° |
| 2026-04-30 14:35 | -27.38646 | 153.12244 | 18 ft | 5 kts | 308° |
| 2026-04-30 14:36 | -27.38637 | 153.12231 | 18 ft | 1 kts | 307° |